sensor_id;sensor_type;location;lat;lon;timestamp;temperature;humidity
12847;DHT22;6492;48.128;8.320;2022-10-03T00:00:41;8.80;79.90
12847;DHT22;6492;48.128;8.320;2022-10-03T00:05:08;8.70;80.00
12847;DHT22;6492;48.128;8.320;2022-10-03T00:09:30;8.70;80.00
12847;DHT22;6492;48.128;8.320;2022-10-03T00:13:42;8.60;79.80
12847;DHT22;6492;48.128;8.320;2022-10-03T00:17:55;8.60;79.90
12847;DHT22;6492;48.128;8.320;2022-10-03T00:22:09;8.60;79.90
12847;DHT22;6492;48.128;8.320;2022-10-03T00:26:25;8.60;79.90
12847;DHT22;6492;48.128;8.320;2022-10-03T00:30:45;8.60;80.00
12847;DHT22;6492;48.128;8.320;2022-10-03T00:35:02;8.60;80.00
12847;DHT22;6492;48.128;8.320;2022-10-03T00:39:45;8.70;80.10
12847;DHT22;6492;48.128;8.320;2022-10-03T00:53:22;8.30;79.90
12847;DHT22;6492;48.128;8.320;2022-10-03T00:57:54;8.30;79.80
12847;DHT22;6492;48.128;8.320;2022-10-03T01:02:18;8.20;79.70
12847;DHT22;6492;48.128;8.320;2022-10-03T01:06:32;8.10;79.70
12847;DHT22;6492;48.128;8.320;2022-10-03T01:10:43;8.30;79.80
12847;DHT22;6492;48.128;8.320;2022-10-03T01:15:07;7.90;79.50
12847;DHT22;6492;48.128;8.320;2022-10-03T01:19:27;7.80;79.40
12847;DHT22;6492;48.128;8.320;2022-10-03T01:23:49;7.70;79.40
12847;DHT22;6492;48.128;8.320;2022-10-03T01:28:01;7.60;79.10
12847;DHT22;6492;48.128;8.320;2022-10-03T01:32:36;7.40;78.90
12847;DHT22;6492;48.128;8.320;2022-10-03T01:36:44;7.20;78.60
12847;DHT22;6492;48.128;8.320;2022-10-03T01:40:56;7.00;78.30
12847;DHT22;6492;48.128;8.320;2022-10-03T01:45:14;6.90;78.50
12847;DHT22;6492;48.128;8.320;2022-10-03T01:49:29;6.90;78.60
12847;DHT22;6492;48.128;8.320;2022-10-03T01:53:46;7.00;78.90
12847;DHT22;6492;48.128;8.320;2022-10-03T01:57:55;7.00;79.00
12847;DHT22;6492;48.128;8.320;2022-10-03T02:02:05;7.10;79.20
12847;DHT22;6492;48.128;8.320;2022-10-03T02:06:18;7.20;79.20
12847;DHT22;6492;48.128;8.320;2022-10-03T02:10:31;7.20;79.30
12847;DHT22;6492;48.128;8.320;2022-10-03T02:14:47;7.70;79.60
12847;DHT22;6492;48.128;8.320;2022-10-03T02:18:56;7.40;79.40
12847;DHT22;6492;48.128;8.320;2022-10-03T02:23:01;8.20;79.80
12847;DHT22;6492;48.128;8.320;2022-10-03T02:27:40;7.50;79.60
12847;DHT22;6492;48.128;8.320;2022-10-03T02:32:14;7.50;79.50
12847;DHT22;6492;48.128;8.320;2022-10-03T02:41:15;7.50;79.50
12847;DHT22;6492;48.128;8.320;2022-10-03T02:45:47;7.50;79.50
12847;DHT22;6492;48.128;8.320;2022-10-03T02:50:22;7.50;79.60
12847;DHT22;6492;48.128;8.320;2022-10-03T02:59:29;7.30;79.50
12847;DHT22;6492;48.128;8.320;2022-10-03T03:03:51;7.10;79.30
12847;DHT22;6492;48.128;8.320;2022-10-03T03:08:23;7.00;79.20
12847;DHT22;6492;48.128;8.320;2022-10-03T03:12:48;6.90;79.30
12847;DHT22;6492;48.128;8.320;2022-10-03T03:17:14;7.00;79.20
12847;DHT22;6492;48.128;8.320;2022-10-03T03:21:28;7.10;79.30
12847;DHT22;6492;48.128;8.320;2022-10-03T03:26:05;7.10;79.30
12847;DHT22;6492;48.128;8.320;2022-10-03T03:30:16;7.10;79.40
12847;DHT22;6492;48.128;8.320;2022-10-03T03:34:25;7.10;79.40
12847;DHT22;6492;48.128;8.320;2022-10-03T03:38:34;7.00;79.30
12847;DHT22;6492;48.128;8.320;2022-10-03T03:42:58;7.30;79.50
12847;DHT22;6492;48.128;8.320;2022-10-03T03:47:15;6.60;79.00
12847;DHT22;6492;48.128;8.320;2022-10-03T03:51:31;6.50;79.00
12847;DHT22;6492;48.128;8.320;2022-10-03T03:55:52;6.50;79.00
12847;DHT22;6492;48.128;8.320;2022-10-03T04:00:13;6.50;79.00
12847;DHT22;6492;48.128;8.320;2022-10-03T04:04:36;6.50;79.00
12847;DHT22;6492;48.128;8.320;2022-10-03T04:08:51;6.60;79.00
12847;DHT22;6492;48.128;8.320;2022-10-03T04:13:17;6.60;79.00
12847;DHT22;6492;48.128;8.320;2022-10-03T04:17:44;6.60;79.00
12847;DHT22;6492;48.128;8.320;2022-10-03T04:22:17;6.60;79.00
12847;DHT22;6492;48.128;8.320;2022-10-03T04:26:40;6.70;79.10
12847;DHT22;6492;48.128;8.320;2022-10-03T04:30:58;6.70;79.80
12847;DHT22;6492;48.128;8.320;2022-10-03T04:35:23;6.70;79.10
12847;DHT22;6492;48.128;8.320;2022-10-03T04:39:33;6.80;78.90
12847;DHT22;6492;48.128;8.320;2022-10-03T04:43:41;6.80;79.00
12847;DHT22;6492;48.128;8.320;2022-10-03T04:47:51;6.90;79.10
12847;DHT22;6492;48.128;8.320;2022-10-03T04:52:01;7.00;79.00
12847;DHT22;6492;48.128;8.320;2022-10-03T04:56:15;7.00;79.00
12847;DHT22;6492;48.128;8.320;2022-10-03T05:00:23;7.10;79.10
12847;DHT22;6492;48.128;8.320;2022-10-03T05:04:31;7.10;79.10
12847;DHT22;6492;48.128;8.320;2022-10-03T05:08:38;7.10;79.10
12847;DHT22;6492;48.128;8.320;2022-10-03T05:12:49;7.30;79.30
12847;DHT22;6492;48.128;8.320;2022-10-03T05:16:56;7.00;79.10
12847;DHT22;6492;48.128;8.320;2022-10-03T05:21:09;7.00;79.10
12847;DHT22;6492;48.128;8.320;2022-10-03T05:25:28;6.90;79.20
12847;DHT22;6492;48.128;8.320;2022-10-03T05:29:37;6.70;79.10
12847;DHT22;6492;48.128;8.320;2022-10-03T05:33:47;6.70;79.20
12847;DHT22;6492;48.128;8.320;2022-10-03T05:38:06;6.60;79.10
12847;DHT22;6492;48.128;8.320;2022-10-03T05:46:58;6.60;79.00
12847;DHT22;6492;48.128;8.320;2022-10-03T05:51:40;6.50;79.00
12847;DHT22;6492;48.128;8.320;2022-10-03T05:55:51;6.50;79.00
12847;DHT22;6492;48.128;8.320;2022-10-03T06:00:17;6.40;78.90
12847;DHT22;6492;48.128;8.320;2022-10-03T06:04:58;6.40;78.90
12847;DHT22;6492;48.128;8.320;2022-10-03T06:09:34;6.20;78.80
12847;DHT22;6492;48.128;8.320;2022-10-03T06:13:57;6.30;78.90
12847;DHT22;6492;48.128;8.320;2022-10-03T06:18:10;6.40;78.80
12847;DHT22;6492;48.128;8.320;2022-10-03T06:22:49;6.50;78.70
12847;DHT22;6492;48.128;8.320;2022-10-03T06:32:16;6.50;78.90
12847;DHT22;6492;48.128;8.320;2022-10-03T06:46:18;6.40;78.80
12847;DHT22;6492;48.128;8.320;2022-10-03T06:50:40;6.40;78.80
12847;DHT22;6492;48.128;8.320;2022-10-03T06:55:19;6.40;78.80
12847;DHT22;6492;48.128;8.320;2022-10-03T07:00:06;6.30;78.90
12847;DHT22;6492;48.128;8.320;2022-10-03T07:19:13;6.60;78.60
12847;DHT22;6492;48.128;8.320;2022-10-03T07:23:44;6.70;78.60
12847;DHT22;6492;48.128;8.320;2022-10-03T07:28:05;6.90;78.60
12847;DHT22;6492;48.128;8.320;2022-10-03T07:32:39;7.00;78.60
12847;DHT22;6492;48.128;8.320;2022-10-03T07:37:08;7.10;78.60
12847;DHT22;6492;48.128;8.320;2022-10-03T07:41:59;7.20;78.30
12847;DHT22;6492;48.128;8.320;2022-10-03T07:46:28;7.30;78.30
12847;DHT22;6492;48.128;8.320;2022-10-03T07:55:46;7.60;78.30
12847;DHT22;6492;48.128;8.320;2022-10-03T08:05:21;7.80;78.00
12847;DHT22;6492;48.128;8.320;2022-10-03T08:09:38;8.10;77.70
12847;DHT22;6492;48.128;8.320;2022-10-03T08:14:00;8.50;77.70
12847;DHT22;6492;48.128;8.320;2022-10-03T08:18:29;9.00;78.40
12847;DHT22;6492;48.128;8.320;2022-10-03T08:22:44;8.50;78.20
12847;DHT22;6492;48.128;8.320;2022-10-03T08:27:17;8.80;77.90
12847;DHT22;6492;48.128;8.320;2022-10-03T08:32:08;9.00;77.80
12847;DHT22;6492;48.128;8.320;2022-10-03T08:37:01;9.50;77.40
12847;DHT22;6492;48.128;8.320;2022-10-03T08:46:01;9.90;78.20
12847;DHT22;6492;48.128;8.320;2022-10-03T09:00:09;10.10;79.80
12847;DHT22;6492;48.128;8.320;2022-10-03T09:18:47;10.60;78.80
12847;DHT22;6492;48.128;8.320;2022-10-03T09:27:33;11.10;72.70
12847;DHT22;6492;48.128;8.320;2022-10-03T09:32:04;11.30;66.00
12847;DHT22;6492;48.128;8.320;2022-10-03T09:45:54;11.70;56.00
12847;DHT22;6492;48.128;8.320;2022-10-03T09:50:26;11.40;54.30
12847;DHT22;6492;48.128;8.320;2022-10-03T09:54:54;11.70;58.00
12847;DHT22;6492;48.128;8.320;2022-10-03T09:59:17;11.80;50.30
12847;DHT22;6492;48.128;8.320;2022-10-03T10:03:57;11.90;52.00
12847;DHT22;6492;48.128;8.320;2022-10-03T10:08:32;12.50;49.80
12847;DHT22;6492;48.128;8.320;2022-10-03T10:12:58;13.20;45.20
12847;DHT22;6492;48.128;8.320;2022-10-03T10:22:23;13.80;32.60
12847;DHT22;6492;48.128;8.320;2022-10-03T10:26:58;14.40;29.70
12847;DHT22;6492;48.128;8.320;2022-10-03T10:31:38;14.80;27.00
12847;DHT22;6492;48.128;8.320;2022-10-03T10:41:00;15.80;21.40
12847;DHT22;6492;48.128;8.320;2022-10-03T10:45:28;16.50;20.70
12847;DHT22;6492;48.128;8.320;2022-10-03T10:50:10;17.50;16.80
12847;DHT22;6492;48.128;8.320;2022-10-03T10:54:47;18.10;9.10
12847;DHT22;6492;48.128;8.320;2022-10-03T10:59:43;18.30;8.00
12847;DHT22;6492;48.128;8.320;2022-10-03T11:13:34;17.80;8.80
12847;DHT22;6492;48.128;8.320;2022-10-03T11:32:18;18.40;7.20
12847;DHT22;6492;48.128;8.320;2022-10-03T11:36:52;18.70;3.80
12847;DHT22;6492;48.128;8.320;2022-10-03T11:41:08;19.20;2.90
12847;DHT22;6492;48.128;8.320;2022-10-03T11:45:24;19.30;1.70
12847;DHT22;6492;48.128;8.320;2022-10-03T11:49:42;19.70;2.40
12847;DHT22;6492;48.128;8.320;2022-10-03T11:53:52;20.20;2.70
12847;DHT22;6492;48.128;8.320;2022-10-03T11:58:14;20.70;2.20
12847;DHT22;6492;48.128;8.320;2022-10-03T12:02:34;20.90;1.00
12847;DHT22;6492;48.128;8.320;2022-10-03T12:06:57;21.20;1.00
12847;DHT22;6492;48.128;8.320;2022-10-03T12:11:22;21.50;1.00
12847;DHT22;6492;48.128;8.320;2022-10-03T12:15:35;21.30;1.00
12847;DHT22;6492;48.128;8.320;2022-10-03T12:19:46;21.40;1.00
12847;DHT22;6492;48.128;8.320;2022-10-03T12:23:58;21.90;1.00
12847;DHT22;6492;48.128;8.320;2022-10-03T12:28:09;22.20;1.00
12847;DHT22;6492;48.128;8.320;2022-10-03T12:32:22;22.40;1.00
12847;DHT22;6492;48.128;8.320;2022-10-03T12:36:30;21.90;1.00
12847;DHT22;6492;48.128;8.320;2022-10-03T12:40:39;21.80;1.00
12847;DHT22;6492;48.128;8.320;2022-10-03T12:44:50;21.90;1.00
12847;DHT22;6492;48.128;8.320;2022-10-03T12:48:58;22.30;1.00
12847;DHT22;6492;48.128;8.320;2022-10-03T12:53:18;22.40;1.00
12847;DHT22;6492;48.128;8.320;2022-10-03T12:57:47;21.50;1.00
12847;DHT22;6492;48.128;8.320;2022-10-03T13:02:22;20.60;1.00
12847;DHT22;6492;48.128;8.320;2022-10-03T13:06:43;20.50;1.00
12847;DHT22;6492;48.128;8.320;2022-10-03T13:10:54;20.50;1.00
12847;DHT22;6492;48.128;8.320;2022-10-03T13:19:48;20.80;1.00
12847;DHT22;6492;48.128;8.320;2022-10-03T13:23:56;20.90;1.00
12847;DHT22;6492;48.128;8.320;2022-10-03T13:28:06;21.10;1.00
12847;DHT22;6492;48.128;8.320;2022-10-03T13:32:29;21.10;1.00
12847;DHT22;6492;48.128;8.320;2022-10-03T13:36:37;21.10;1.00
12847;DHT22;6492;48.128;8.320;2022-10-03T13:40:44;20.60;1.00
12847;DHT22;6492;48.128;8.320;2022-10-03T13:44:50;20.60;1.00
12847;DHT22;6492;48.128;8.320;2022-10-03T13:48:57;20.20;1.00
12847;DHT22;6492;48.128;8.320;2022-10-03T13:53:04;20.10;1.00
12847;DHT22;6492;48.128;8.320;2022-10-03T13:57:15;19.70;1.00
12847;DHT22;6492;48.128;8.320;2022-10-03T14:01:32;19.60;1.00
12847;DHT22;6492;48.128;8.320;2022-10-03T14:06:04;19.80;1.00
12847;DHT22;6492;48.128;8.320;2022-10-03T14:10:30;19.30;1.00
12847;DHT22;6492;48.128;8.320;2022-10-03T14:14:49;19.20;1.00
12847;DHT22;6492;48.128;8.320;2022-10-03T14:18:58;19.00;1.00
12847;DHT22;6492;48.128;8.320;2022-10-03T14:23:18;18.80;1.00
12847;DHT22;6492;48.128;8.320;2022-10-03T14:27:40;18.70;1.00
12847;DHT22;6492;48.128;8.320;2022-10-03T14:31:50;18.80;1.00
12847;DHT22;6492;48.128;8.320;2022-10-03T14:36:07;18.90;1.00
12847;DHT22;6492;48.128;8.320;2022-10-03T14:40:15;19.00;1.00
12847;DHT22;6492;48.128;8.320;2022-10-03T14:44:19;18.90;1.00
12847;DHT22;6492;48.128;8.320;2022-10-03T14:48:27;18.60;1.00
12847;DHT22;6492;48.128;8.320;2022-10-03T14:52:35;18.60;1.80
12847;DHT22;6492;48.128;8.320;2022-10-03T14:56:42;18.50;2.30
12847;DHT22;6492;48.128;8.320;2022-10-03T15:00:46;18.20;1.10
12847;DHT22;6492;48.128;8.320;2022-10-03T15:04:53;18.00;1.70
12847;DHT22;6492;48.128;8.320;2022-10-03T15:08:57;17.80;2.70
12847;DHT22;6492;48.128;8.320;2022-10-03T15:13:05;17.40;2.30
12847;DHT22;6492;48.128;8.320;2022-10-03T15:17:16;17.40;3.40
12847;DHT22;6492;48.128;8.320;2022-10-03T15:21:22;17.40;3.50
12847;DHT22;6492;48.128;8.320;2022-10-03T15:25:27;17.40;4.30
12847;DHT22;6492;48.128;8.320;2022-10-03T15:29:33;17.60;4.70
12847;DHT22;6492;48.128;8.320;2022-10-03T15:33:37;17.30;4.30
12847;DHT22;6492;48.128;8.320;2022-10-03T15:37:41;17.30;3.30
12847;DHT22;6492;48.128;8.320;2022-10-03T15:41:50;17.20;4.10
12847;DHT22;6492;48.128;8.320;2022-10-03T15:45:55;17.60;4.30
12847;DHT22;6492;48.128;8.320;2022-10-03T15:50:00;17.30;4.70
12847;DHT22;6492;48.128;8.320;2022-10-03T15:54:06;16.80;5.20
12847;DHT22;6492;48.128;8.320;2022-10-03T15:58:16;16.60;5.80
12847;DHT22;6492;48.128;8.320;2022-10-03T16:02:25;16.40;7.90
12847;DHT22;6492;48.128;8.320;2022-10-03T16:06:32;16.20;7.10
12847;DHT22;6492;48.128;8.320;2022-10-03T16:10:45;15.90;7.60
12847;DHT22;6492;48.128;8.320;2022-10-03T16:14:55;15.50;9.10
12847;DHT22;6492;48.128;8.320;2022-10-03T16:19:19;14.90;10.90
12847;DHT22;6492;48.128;8.320;2022-10-03T16:23:25;14.30;13.00
12847;DHT22;6492;48.128;8.320;2022-10-03T16:27:31;13.80;15.10
12847;DHT22;6492;48.128;8.320;2022-10-03T16:31:36;13.30;16.90
12847;DHT22;6492;48.128;8.320;2022-10-03T16:35:43;12.70;18.40
12847;DHT22;6492;48.128;8.320;2022-10-03T16:39:54;12.30;20.10
12847;DHT22;6492;48.128;8.320;2022-10-03T16:44:00;11.90;23.50
12847;DHT22;6492;48.128;8.320;2022-10-03T16:48:10;11.40;25.30
12847;DHT22;6492;48.128;8.320;2022-10-03T16:52:32;11.00;27.30
12847;DHT22;6492;48.128;8.320;2022-10-03T16:56:38;10.60;29.40
12847;DHT22;6492;48.128;8.320;2022-10-03T17:00:51;10.30;31.20
12847;DHT22;6492;48.128;8.320;2022-10-03T17:05:01;9.90;34.70
12847;DHT22;6492;48.128;8.320;2022-10-03T17:09:07;9.50;37.20
12847;DHT22;6492;48.128;8.320;2022-10-03T17:13:17;9.20;40.00
12847;DHT22;6492;48.128;8.320;2022-10-03T17:17:28;8.90;42.20
12847;DHT22;6492;48.128;8.320;2022-10-03T17:21:31;8.60;46.10
12847;DHT22;6492;48.128;8.320;2022-10-03T17:25:39;8.40;49.80
12847;DHT22;6492;48.128;8.320;2022-10-03T17:29:46;8.20;52.30
12847;DHT22;6492;48.128;8.320;2022-10-03T17:33:54;8.00;53.10
12847;DHT22;6492;48.128;8.320;2022-10-03T17:38:16;7.90;54.30
12847;DHT22;6492;48.128;8.320;2022-10-03T17:42:33;7.70;54.50
12847;DHT22;6492;48.128;8.320;2022-10-03T17:46:40;7.60;56.10
12847;DHT22;6492;48.128;8.320;2022-10-03T17:50:56;7.40;57.10
12847;DHT22;6492;48.128;8.320;2022-10-03T17:55:02;7.30;58.40
12847;DHT22;6492;48.128;8.320;2022-10-03T17:59:10;7.20;59.50
12847;DHT22;6492;48.128;8.320;2022-10-03T18:03:18;7.10;60.60
12847;DHT22;6492;48.128;8.320;2022-10-03T18:07:25;7.70;62.10
12847;DHT22;6492;48.128;8.320;2022-10-03T18:11:29;7.50;62.70
12847;DHT22;6492;48.128;8.320;2022-10-03T18:15:55;6.90;63.10
12847;DHT22;6492;48.128;8.320;2022-10-03T18:20:17;6.80;63.40
12847;DHT22;6492;48.128;8.320;2022-10-03T18:24:42;7.10;64.30
12847;DHT22;6492;48.128;8.320;2022-10-03T18:28:49;6.70;64.50
12847;DHT22;6492;48.128;8.320;2022-10-03T18:32:56;6.50;65.30
12847;DHT22;6492;48.128;8.320;2022-10-03T18:37:16;6.40;65.00
12847;DHT22;6492;48.128;8.320;2022-10-03T18:41:19;6.40;65.60
12847;DHT22;6492;48.128;8.320;2022-10-03T18:45:26;6.20;65.90
12847;DHT22;6492;48.128;8.320;2022-10-03T18:49:30;6.20;66.30
12847;DHT22;6492;48.128;8.320;2022-10-03T18:53:36;6.20;66.90
12847;DHT22;6492;48.128;8.320;2022-10-03T18:57:44;6.10;67.60
12847;DHT22;6492;48.128;8.320;2022-10-03T19:01:51;6.10;67.70
12847;DHT22;6492;48.128;8.320;2022-10-03T19:05:56;6.20;68.30
12847;DHT22;6492;48.128;8.320;2022-10-03T19:10:46;6.20;69.00
12847;DHT22;6492;48.128;8.320;2022-10-03T19:15:04;6.00;69.30
12847;DHT22;6492;48.128;8.320;2022-10-03T19:24:10;5.90;69.60
12847;DHT22;6492;48.128;8.320;2022-10-03T19:47:34;5.50;70.30
12847;DHT22;6492;48.128;8.320;2022-10-03T20:05:57;5.30;71.50
